Time;durP1;ratioP1;P1;durP2;ratioP2;P2;SDS_P1;SDS_P2;PMS_P1;PMS_P2;Temp;Humidity;BMP_temperature;BMP_pressure;BME280_temperature;BME280_humidity;BME280_pressure;Samples;Min_cycle;Max_cycle;Signal;HPM_P1;HPM_P2
2022/06/28 00:00:00;;;;;;;27.10;18.65;;;;;;;;;;5008107;28;20187;-70
2022/06/28 00:02:26;;;;;;;30.17;19.58;;;;;;;;;;5003872;28;20237;-70
2022/06/28 00:04:51;;;;;;;26.27;19.08;;;;;;;;;;5010094;28;20266;-69
2022/06/28 00:07:17;;;;;;;30.48;19.92;;;;;;;;;;5020264;28;20654;-70
2022/06/28 00:09:42;;;;;;;30.08;20.02;;;;;;;;;;5010739;28;20187;-69
2022/06/28 00:12:08;;;;;;;34.83;21.10;;;;;;;;;;5002314;28;20610;-69
2022/06/28 00:17:18;;;;;;;23.40;15.95;;;;;;;;;;5018269;28;20193;-69
2022/06/28 00:19:43;;;;;;;22.25;15.25;;;;;;;;;;5002174;28;20207;-69
2022/06/28 00:22:09;;;;;;;23.23;16.38;;;;;;;;;;5000686;28;20178;-70
2022/06/28 00:24:34;;;;;;;29.35;19.23;;;;;;;;;;5011090;28;20183;-70
2022/06/28 00:27:00;;;;;;;27.00;18.25;;;;;;;;;;5006832;28;20218;-69
2022/06/28 00:29:25;;;;;;;31.98;18.77;;;;;;;;;;5020805;28;20271;-69
2022/06/28 00:31:50;;;;;;;28.38;19.20;;;;;;;;;;5009175;28;20510;-69
2022/06/28 00:34:16;;;;;;;34.17;20.85;;;;;;;;;;5010575;28;20667;-69
2022/06/28 00:36:42;;;;;;;34.85;19.95;;;;;;;;;;5018766;28;20582;-69
2022/06/28 00:39:08;;;;;;;29.50;20.23;;;;;;;;;;5011395;28;20214;-68
2022/06/28 00:41:34;;;;;;;29.35;20.42;;;;;;;;;;5009025;28;20205;-69
2022/06/28 00:44:01;;;;;;;33.65;21.58;;;;;;;;;;5006594;28;20187;-69
2022/06/28 00:46:26;;;;;;;32.13;20.55;;;;;;;;;;4992044;28;20238;-69
2022/06/28 00:48:52;;;;;;;30.55;19.85;;;;;;;;;;5003757;28;20218;-69
2022/06/28 00:51:17;;;;;;;29.13;20.10;;;;;;;;;;5001597;28;20235;-69
2022/06/28 00:53:43;;;;;;;26.33;18.85;;;;;;;;;;5005941;28;20190;-69
2022/06/28 00:56:08;;;;;;;28.17;18.80;;;;;;;;;;5018063;28;20193;-70
2022/06/28 00:58:34;;;;;;;27.60;19.10;;;;;;;;;;5009829;28;20312;-70
2022/06/28 01:00:59;;;;;;;28.08;19.58;;;;;;;;;;5009395;28;20195;-70
2022/06/28 01:03:25;;;;;;;27.95;20.27;;;;;;;;;;4999680;28;20195;-69
2022/06/28 01:05:52;;;;;;;33.47;21.75;;;;;;;;;;5008598;28;20635;-69
2022/06/28 01:08:18;;;;;;;35.70;21.83;;;;;;;;;;4997912;28;20186;-69
2022/06/28 01:10:44;;;;;;;37.10;24.23;;;;;;;;;;5003622;28;20266;-69
2022/06/28 01:13:10;;;;;;;40.15;26.20;;;;;;;;;;5003737;28;20205;-69
2022/06/28 01:15:37;;;;;;;37.13;26.45;;;;;;;;;;5001712;28;20191;-69
2022/06/28 01:18:05;;;;;;;44.78;26.45;;;;;;;;;;5012595;28;20213;-69
2022/06/28 01:20:30;;;;;;;43.08;25.95;;;;;;;;;;5002371;28;20603;-69
2022/06/28 01:22:56;;;;;;;47.83;27.67;;;;;;;;;;5007555;28;20266;-70
2022/06/28 01:25:22;;;;;;;45.63;27.58;;;;;;;;;;5010119;28;20237;-69
2022/06/28 01:27:48;;;;;;;46.00;28.48;;;;;;;;;;4996902;28;20175;-69
2022/06/28 01:30:14;;;;;;;43.22;27.52;;;;;;;;;;5005015;28;20718;-69
2022/06/28 01:32:41;;;;;;;43.97;27.45;;;;;;;;;;5006590;28;20233;-69
2022/06/28 01:35:07;;;;;;;47.60;27.05;;;;;;;;;;5005802;28;20229;-69
2022/06/28 01:37:34;;;;;;;41.30;27.13;;;;;;;;;;5017013;28;20502;-69
2022/06/28 01:40:00;;;;;;;38.92;26.73;;;;;;;;;;5008414;28;20213;-69
2022/06/28 01:42:29;;;;;;;43.25;27.05;;;;;;;;;;5006685;28;20199;-69
2022/06/28 01:44:56;;;;;;;39.95;26.10;;;;;;;;;;5005785;28;20243;-69
2022/06/28 01:47:24;;;;;;;40.15;25.77;;;;;;;;;;5011751;28;20186;-69
2022/06/28 01:49:49;;;;;;;45.72;27.10;;;;;;;;;;5014041;28;20178;-69
2022/06/28 01:52:15;;;;;;;43.13;26.20;;;;;;;;;;5017876;28;20182;-69
2022/06/28 01:54:41;;;;;;;41.67;26.02;;;;;;;;;;5016574;28;20219;-69
2022/06/28 01:57:07;;;;;;;36.70;24.75;;;;;;;;;;5012873;28;20491;-70
2022/06/28 01:59:32;;;;;;;38.35;24.77;;;;;;;;;;4996687;28;20234;-69
2022/06/28 02:01:57;;;;;;;37.67;25.33;;;;;;;;;;5002574;28;20182;-69
2022/06/28 02:04:28;;;;;;;39.65;25.58;;;;;;;;;;5011533;28;20257;-69
2022/06/28 02:06:54;;;;;;;46.38;27.73;;;;;;;;;;5013490;28;20194;-69
2022/06/28 02:09:20;;;;;;;41.63;27.55;;;;;;;;;;5009255;28;20659;-69
2022/06/28 02:11:45;;;;;;;46.40;27.48;;;;;;;;;;5001947;28;20198;-69
2022/06/28 02:14:11;;;;;;;41.85;26.27;;;;;;;;;;5007545;28;20182;-69
2022/06/28 02:16:36;;;;;;;48.65;27.90;;;;;;;;;;5011093;28;20347;-70
2022/06/28 02:19:02;;;;;;;47.08;27.73;;;;;;;;;;5022347;28;20289;-70
2022/06/28 02:21:29;;;;;;;46.60;27.48;;;;;;;;;;5004491;28;20189;-69
2022/06/28 02:23:55;;;;;;;52.33;28.65;;;;;;;;;;5007011;28;20191;-69
2022/06/28 02:26:21;;;;;;;43.38;27.45;;;;;;;;;;5011329;28;20189;-70
2022/06/28 02:28:46;;;;;;;47.47;26.65;;;;;;;;;;5001503;28;20230;-69
2022/06/28 02:31:13;;;;;;;43.90;25.70;;;;;;;;;;5005929;28;20198;-69
2022/06/28 02:33:40;;;;;;;47.28;26.50;;;;;;;;;;5010090;28;20209;-69
2022/06/28 02:41:34;;;;;;;41.97;24.58;;;;;;;;;;5003915;28;20246;-70
2022/06/28 02:43:59;;;;;;;36.10;23.60;;;;;;;;;;5020001;28;20547;-70
2022/06/28 02:46:25;;;;;;;41.97;23.38;;;;;;;;;;5011846;28;20201;-70
2022/06/28 02:48:50;;;;;;;34.58;23.02;;;;;;;;;;5012638;28;20178;-70
2022/06/28 02:51:16;;;;;;;35.47;22.08;;;;;;;;;;5011338;28;20253;-70
2022/06/28 02:53:41;;;;;;;37.58;22.67;;;;;;;;;;5010715;28;20243;-70
2022/06/28 02:56:06;;;;;;;35.83;22.80;;;;;;;;;;5010792;28;20782;-69
2022/06/28 02:58:32;;;;;;;34.80;22.88;;;;;;;;;;5013363;28;20194;-71
2022/06/28 03:00:57;;;;;;;32.72;22.17;;;;;;;;;;5010508;28;20182;-69
2022/06/28 03:03:23;;;;;;;38.35;22.90;;;;;;;;;;5012035;28;20191;-70
2022/06/28 03:05:48;;;;;;;36.58;23.65;;;;;;;;;;5005422;28;20203;-69
2022/06/28 03:08:13;;;;;;;37.80;24.58;;;;;;;;;;5010615;28;20197;-70
2022/06/28 03:10:39;;;;;;;35.25;22.92;;;;;;;;;;5016144;28;20634;-69
2022/06/28 03:13:05;;;;;;;36.92;24.10;;;;;;;;;;5006205;28;20274;-69
2022/06/28 03:15:30;;;;;;;36.75;24.00;;;;;;;;;;5008280;28;20237;-69
2022/06/28 03:17:55;;;;;;;36.83;24.17;;;;;;;;;;5011027;28;20684;-70
2022/06/28 03:20:21;;;;;;;32.22;23.00;;;;;;;;;;5009942;28;20203;-69
2022/06/28 03:22:46;;;;;;;36.88;24.27;;;;;;;;;;5007474;28;20237;-70
2022/06/28 03:25:12;;;;;;;38.40;23.65;;;;;;;;;;5009599;28;20261;-70
2022/06/28 03:27:37;;;;;;;42.35;24.35;;;;;;;;;;5010388;28;20608;-70
2022/06/28 03:30:04;;;;;;;40.35;25.67;;;;;;;;;;5009103;28;20219;-70
2022/06/28 03:32:30;;;;;;;39.53;25.40;;;;;;;;;;5007254;28;21078;-70
2022/06/28 03:34:55;;;;;;;39.75;25.73;;;;;;;;;;5006610;28;20222;-70
2022/06/28 03:37:21;;;;;;;44.80;26.80;;;;;;;;;;5042338;28;20218;-70
2022/06/28 03:39:46;;;;;;;46.75;26.73;;;;;;;;;;5008104;28;20199;-70
2022/06/28 03:42:12;;;;;;;49.22;28.17;;;;;;;;;;5006474;28;20266;-70
2022/06/28 03:44:37;;;;;;;45.70;27.00;;;;;;;;;;5012081;28;20198;-70
2022/06/28 03:47:03;;;;;;;44.35;26.90;;;;;;;;;;5000996;28;20198;-69
2022/06/28 03:49:29;;;;;;;42.20;26.67;;;;;;;;;;5013363;28;20174;-69
2022/06/28 03:51:54;;;;;;;43.22;27.52;;;;;;;;;;5007354;28;20736;-69
2022/06/28 03:54:19;;;;;;;55.20;29.40;;;;;;;;;;5005162;28;20179;-71
2022/06/28 03:56:45;;;;;;;44.08;28.63;;;;;;;;;;5010256;28;20674;-70
2022/06/28 03:59:10;;;;;;;54.78;30.05;;;;;;;;;;5019470;28;20198;-70
2022/06/28 04:01:36;;;;;;;52.95;30.45;;;;;;;;;;5018871;28;20178;-70
2022/06/28 04:04:01;;;;;;;54.05;30.10;;;;;;;;;;5012656;28;20277;-70
2022/06/28 04:06:27;;;;;;;52.58;29.48;;;;;;;;;;5012012;28;20187;-70
2022/06/28 04:08:52;;;;;;;49.80;30.63;;;;;;;;;;5015904;28;20229;-70
2022/06/28 04:11:17;;;;;;;48.00;30.25;;;;;;;;;;5008324;28;20186;-70
2022/06/28 04:13:48;;;;;;;52.50;31.10;;;;;;;;;;4991644;28;20278;-70
2022/06/28 04:16:14;;;;;;;51.45;31.55;;;;;;;;;;5005399;28;20491;-70
2022/06/28 04:18:43;;;;;;;51.80;28.08;;;;;;;;;;5012269;28;20208;-70
2022/06/28 04:21:09;;;;;;;51.70;31.08;;;;;;;;;;5014243;28;20534;-69
2022/06/28 04:23:35;;;;;;;52.35;30.85;;;;;;;;;;5011087;28;20170;-70
2022/06/28 04:26:00;;;;;;;51.47;29.77;;;;;;;;;;5009552;28;20576;-70
2022/06/28 04:28:25;;;;;;;58.25;32.10;;;;;;;;;;5003106;28;20313;-70
2022/06/28 04:30:51;;;;;;;49.40;31.55;;;;;;;;;;5005911;28;20288;-70
2022/06/28 04:33:16;;;;;;;60.15;33.97;;;;;;;;;;5009808;28;20171;-69
2022/06/28 04:35:42;;;;;;;50.90;32.47;;;;;;;;;;5008412;28;20191;-69
2022/06/28 04:38:07;;;;;;;48.45;32.85;;;;;;;;;;5008719;28;20678;-68
2022/06/28 04:40:33;;;;;;;43.83;30.17;;;;;;;;;;5009938;28;20186;-69
2022/06/28 04:42:58;;;;;;;37.53;27.13;;;;;;;;;;5009908;28;20179;-70
2022/06/28 04:45:23;;;;;;;36.85;26.23;;;;;;;;;;5008751;28;20207;-70
2022/06/28 04:47:49;;;;;;;33.47;25.77;;;;;;;;;;5008646;28;20209;-70
2022/06/28 04:50:14;;;;;;;32.55;23.33;;;;;;;;;;5009328;28;20190;-69
2022/06/28 04:52:39;;;;;;;27.02;21.55;;;;;;;;;;5006760;28;20179;-70
2022/06/28 04:55:05;;;;;;;29.58;22.13;;;;;;;;;;5002099;28;20251;-70
2022/06/28 04:57:31;;;;;;;25.30;19.60;;;;;;;;;;5001788;28;20453;-67
2022/06/28 04:59:56;;;;;;;27.08;21.42;;;;;;;;;;4996337;28;20275;-69
2022/06/28 05:02:22;;;;;;;20.05;17.13;;;;;;;;;;4999642;28;20186;-68
2022/06/28 05:04:47;;;;;;;22.10;19.27;;;;;;;;;;5002174;28;20622;-69
2022/06/28 05:07:13;;;;;;;21.55;18.15;;;;;;;;;;4996118;28;20265;-68
2022/06/28 05:09:38;;;;;;;21.67;18.45;;;;;;;;;;5001410;28;20562;-69
2022/06/28 05:12:05;;;;;;;21.00;18.33;;;;;;;;;;4999610;28;20766;-68
2022/06/28 05:14:30;;;;;;;23.90;20.08;;;;;;;;;;4999419;28;20260;-68
2022/06/28 05:16:55;;;;;;;24.23;20.55;;;;;;;;;;5001505;28;20651;-66
2022/06/28 05:19:21;;;;;;;26.42;21.08;;;;;;;;;;5005636;28;20195;-67
2022/06/28 05:21:46;;;;;;;26.00;20.85;;;;;;;;;;4997329;28;20189;-67
2022/06/28 05:24:11;;;;;;;25.92;20.92;;;;;;;;;;5004421;28;20191;-66
2022/06/28 05:26:37;;;;;;;25.92;20.50;;;;;;;;;;4997538;28;20309;-68
2022/06/28 05:29:03;;;;;;;29.50;20.42;;;;;;;;;;4996853;28;20238;-68
2022/06/28 05:31:28;;;;;;;25.95;21.25;;;;;;;;;;5010840;28;20678;-66
2022/06/28 05:33:55;;;;;;;25.75;19.05;;;;;;;;;;5000751;28;20333;-67
2022/06/28 05:36:20;;;;;;;27.15;20.70;;;;;;;;;;5001240;28;20183;-68
2022/06/28 05:38:46;;;;;;;27.70;22.10;;;;;;;;;;5001053;28;20290;-66
2022/06/28 05:41:11;;;;;;;26.00;21.48;;;;;;;;;;5003529;28;21227;-66
2022/06/28 05:43:36;;;;;;;27.13;21.58;;;;;;;;;;5002069;28;20191;-66
2022/06/28 05:46:02;;;;;;;23.20;19.80;;;;;;;;;;5004966;28;20266;-67
2022/06/28 05:48:27;;;;;;;24.60;20.10;;;;;;;;;;5034565;28;20293;-67
2022/06/28 05:50:53;;;;;;;22.75;19.27;;;;;;;;;;5005831;28;20189;-66
2022/06/28 05:53:18;;;;;;;28.20;20.92;;;;;;;;;;5003667;28;20187;-66
2022/06/28 05:55:43;;;;;;;27.33;19.90;;;;;;;;;;4997015;28;20898;-64
2022/06/28 05:58:09;;;;;;;25.92;18.52;;;;;;;;;;4999784;28;20213;-64
2022/06/28 06:00:37;;;;;;;25.05;20.05;;;;;;;;;;5006463;28;20183;-66
2022/06/28 06:03:03;;;;;;;26.23;22.17;;;;;;;;;;5007292;28;20209;-67
2022/06/28 06:05:28;;;;;;;22.48;18.75;;;;;;;;;;5005675;28;20201;-67
2022/06/28 06:07:54;;;;;;;25.10;21.02;;;;;;;;;;5001986;28;20187;-66
2022/06/28 06:10:19;;;;;;;25.77;20.52;;;;;;;;;;5006801;28;20248;-67
2022/06/28 06:12:45;;;;;;;24.52;19.33;;;;;;;;;;5004725;28;20205;-64
2022/06/28 06:15:10;;;;;;;26.20;20.25;;;;;;;;;;5003719;28;20175;-65
2022/06/28 06:17:36;;;;;;;26.60;20.92;;;;;;;;;;5001586;28;20635;-66
2022/06/28 06:20:02;;;;;;;24.83;19.10;;;;;;;;;;5004764;28;20198;-67
2022/06/28 06:22:29;;;;;;;22.23;17.77;;;;;;;;;;5005260;28;20269;-65
2022/06/28 06:24:54;;;;;;;22.88;18.33;;;;;;;;;;5003603;28;20198;-66
2022/06/28 06:27:19;;;;;;;24.63;18.88;;;;;;;;;;5005877;28;20178;-64
2022/06/28 06:29:45;;;;;;;27.55;19.60;;;;;;;;;;5005443;28;20226;-65
2022/06/28 06:32:10;;;;;;;24.15;17.80;;;;;;;;;;5005125;28;20666;-65
2022/06/28 06:34:35;;;;;;;24.77;18.92;;;;;;;;;;5005035;28;20179;-66
2022/06/28 06:37:01;;;;;;;23.40;17.70;;;;;;;;;;5006065;28;20183;-65
2022/06/28 06:39:26;;;;;;;20.63;16.50;;;;;;;;;;5006476;28;20206;-66
2022/06/28 06:41:52;;;;;;;20.65;14.32;;;;;;;;;;5003730;28;20183;-64
2022/06/28 06:44:18;;;;;;;18.05;13.63;;;;;;;;;;5005179;28;20666;-66
2022/06/28 06:46:43;;;;;;;21.05;14.05;;;;;;;;;;5004185;28;20183;-66
2022/06/28 06:49:09;;;;;;;17.73;13.52;;;;;;;;;;5006443;28;20175;-66
2022/06/28 06:51:35;;;;;;;15.98;12.70;;;;;;;;;;5004517;28;20183;-65
2022/06/28 06:54:00;;;;;;;18.48;12.30;;;;;;;;;;5006443;28;20261;-66
2022/06/28 06:56:26;;;;;;;17.23;11.48;;;;;;;;;;5003989;28;20284;-67
2022/06/28 06:58:52;;;;;;;15.02;10.82;;;;;;;;;;5004021;28;20290;-66
2022/06/28 07:01:17;;;;;;;19.58;12.35;;;;;;;;;;5004943;28;20186;-66
2022/06/28 07:03:44;;;;;;;18.02;12.75;;;;;;;;;;5006000;28;20171;-65
2022/06/28 07:06:13;;;;;;;21.30;13.30;;;;;;;;;;5005163;28;20211;-65
2022/06/28 07:08:40;;;;;;;16.98;12.23;;;;;;;;;;5006484;28;20548;-64
2022/06/28 07:11:05;;;;;;;17.50;11.30;;;;;;;;;;5005851;28;20209;-64
2022/06/28 07:13:31;;;;;;;12.88;9.88;;;;;;;;;;5007258;28;20651;-64
2022/06/28 07:15:57;;;;;;;16.77;11.27;;;;;;;;;;5004296;28;20674;-64
2022/06/28 07:18:23;;;;;;;17.65;11.85;;;;;;;;;;5000031;28;20207;-64
2022/06/28 07:20:51;;;;;;;19.08;12.52;;;;;;;;;;4999549;28;20175;-65
2022/06/28 07:23:16;;;;;;;15.60;11.00;;;;;;;;;;5002978;28;20285;-65
2022/06/28 07:25:42;;;;;;;15.02;10.20;;;;;;;;;;5000452;28;20698;-65
2022/06/28 07:28:10;;;;;;;15.00;9.25;;;;;;;;;;5001624;28;20635;-65
2022/06/28 07:30:36;;;;;;;14.90;9.80;;;;;;;;;;5004957;28;20214;-64
2022/06/28 07:33:01;;;;;;;14.05;10.65;;;;;;;;;;5008041;28;20580;-65
2022/06/28 07:35:26;;;;;;;16.95;10.95;;;;;;;;;;5009318;28;20219;-65
2022/06/28 07:37:52;;;;;;;13.75;9.27;;;;;;;;;;5007499;28;20208;-65
2022/06/28 07:40:17;;;;;;;12.15;8.77;;;;;;;;;;5009737;28;20604;-65
2022/06/28 07:42:43;;;;;;;15.93;9.77;;;;;;;;;;5007829;28;20197;-64
2022/06/28 07:45:08;;;;;;;11.93;9.30;;;;;;;;;;5010946;28;20175;-64
2022/06/28 07:47:34;;;;;;;10.27;6.82;;;;;;;;;;5005962;28;20191;-64
2022/06/28 07:52:43;;;;;;;10.27;6.18;;;;;;;;;;5005378;28;20289;-65
2022/06/28 07:55:10;;;;;;;9.88;6.43;;;;;;;;;;5005943;28;20274;-65
2022/06/28 07:57:35;;;;;;;11.75;6.68;;;;;;;;;;5007219;28;20615;-65
2022/06/28 08:00:01;;;;;;;10.23;6.50;;;;;;;;;;5009365;28;20234;-65
2022/06/28 08:02:27;;;;;;;14.35;6.00;;;;;;;;;;5006070;28;20237;-65
2022/06/28 08:04:52;;;;;;;9.95;5.30;;;;;;;;;;5007475;28;20190;-67
2022/06/28 08:07:18;;;;;;;9.32;4.20;;;;;;;;;;5008725;28;20187;-68
2022/06/28 08:09:43;;;;;;;7.53;4.75;;;;;;;;;;5004441;28;20187;-67
2022/06/28 08:12:08;;;;;;;11.90;6.28;;;;;;;;;;5009187;28;20270;-66
2022/06/28 08:14:34;;;;;;;6.78;5.80;;;;;;;;;;5006918;28;20553;-65
2022/06/28 08:16:59;;;;;;;8.15;5.35;;;;;;;;;;5009993;28;20244;-67
2022/06/28 08:19:25;;;;;;;8.43;5.05;;;;;;;;;;5005530;28;20206;-66
2022/06/28 08:21:50;;;;;;;8.75;4.97;;;;;;;;;;5004347;28;20183;-64
2022/06/28 08:24:16;;;;;;;8.93;4.95;;;;;;;;;;5005418;28;20241;-64
2022/06/28 08:26:44;;;;;;;6.95;4.43;;;;;;;;;;5006247;28;20190;-64
2022/06/28 08:29:11;;;;;;;10.73;3.78;;;;;;;;;;5008864;28;20357;-65
2022/06/28 08:31:36;;;;;;;7.75;3.78;;;;;;;;;;5005115;28;20207;-64
2022/06/28 08:34:02;;;;;;;7.00;4.10;;;;;;;;;;5006379;28;20647;-65
2022/06/28 08:36:27;;;;;;;9.35;4.70;;;;;;;;;;5005739;28;20198;-67
2022/06/28 08:38:53;;;;;;;11.10;4.60;;;;;;;;;;5006399;28;20207;-66
2022/06/28 08:41:19;;;;;;;9.88;4.75;;;;;;;;;;5007871;28;20186;-67
2022/06/28 08:43:45;;;;;;;6.00;4.03;;;;;;;;;;5008282;28;20543;-63
2022/06/28 08:46:10;;;;;;;8.07;2.78;;;;;;;;;;5007395;28;20190;-63
2022/06/28 08:48:41;;;;;;;6.28;2.10;;;;;;;;;;5006169;28;20245;-64
2022/06/28 08:51:08;;;;;;;5.28;2.35;;;;;;;;;;5009975;28;20182;-64
2022/06/28 08:53:36;;;;;;;5.80;2.25;;;;;;;;;;5005795;28;20268;-64
2022/06/28 08:56:02;;;;;;;11.38;1.90;;;;;;;;;;5006064;28;20530;-64
2022/06/28 08:58:28;;;;;;;11.02;2.40;;;;;;;;;;5008907;28;20205;-63
2022/06/28 09:00:54;;;;;;;10.40;2.20;;;;;;;;;;5005426;28;20389;-65
2022/06/28 09:03:19;;;;;;;5.40;2.17;;;;;;;;;;5008716;28;20273;-65
2022/06/28 09:05:45;;;;;;;6.50;2.40;;;;;;;;;;5006972;28;20273;-64
2022/06/28 09:08:10;;;;;;;5.82;2.28;;;;;;;;;;5007800;28;20309;-67
2022/06/28 09:10:36;;;;;;;4.47;1.70;;;;;;;;;;5006826;28;20175;-69
2022/06/28 09:13:13;;;;;;;4.95;1.50;;;;;;;;;;5008594;28;20260;-65
2022/06/28 09:15:54;;;;;;;6.07;1.67;;;;;;;;;;5009298;28;20261;-67
2022/06/28 09:18:22;;;;;;;3.33;1.50;;;;;;;;;;5008796;28;20206;-66
2022/06/28 09:20:51;;;;;;;5.65;1.48;;;;;;;;;;5006594;28;20650;-65
2022/06/28 09:23:34;;;;;;;3.42;1.10;;;;;;;;;;5006535;28;20261;-67
2022/06/28 09:26:13;;;;;;;2.45;1.50;;;;;;;;;;5007406;28;20218;-65
2022/06/28 09:28:50;;;;;;;6.60;1.70;;;;;;;;;;5034154;28;20218;-66
2022/06/28 09:31:19;;;;;;;4.28;1.20;;;;;;;;;;5006382;28;20285;-66
2022/06/28 09:34:07;;;;;;;10.18;2.00;;;;;;;;;;5003545;28;20456;-66
2022/06/28 09:36:38;;;;;;;5.78;2.38;;;;;;;;;;5002749;28;20186;-64
2022/06/28 09:39:15;;;;;;;4.45;2.15;;;;;;;;;;5007596;28;20701;-64
2022/06/28 09:41:46;;;;;;;5.80;1.90;;;;;;;;;;5004534;28;20205;-67
2022/06/28 09:44:12;;;;;;;5.50;1.65;;;;;;;;;;5007400;28;20659;-65
2022/06/28 09:46:39;;;;;;;4.72;1.75;;;;;;;;;;5006839;28;20179;-65
2022/06/28 09:49:07;;;;;;;5.45;1.60;;;;;;;;;;5005394;28;20698;-67
2022/06/28 09:51:35;;;;;;;5.78;1.40;;;;;;;;;;5009382;28;20229;-68
2022/06/28 09:54:04;;;;;;;4.78;1.67;;;;;;;;;;4993153;28;20270;-67
2022/06/28 09:56:34;;;;;;;4.43;1.65;;;;;;;;;;5007463;28;20547;-66
2022/06/28 09:59:00;;;;;;;4.43;2.30;;;;;;;;;;5023045;28;20199;-66
2022/06/28 10:01:25;;;;;;;5.40;1.80;;;;;;;;;;4993993;28;20758;-66
2022/06/28 10:03:52;;;;;;;5.85;1.48;;;;;;;;;;5002411;28;20190;-66
2022/06/28 10:06:19;;;;;;;2.28;1.17;;;;;;;;;;5001923;28;20179;-65
2022/06/28 10:08:45;;;;;;;4.32;1.20;;;;;;;;;;5032093;28;20209;-65
2022/06/28 10:11:11;;;;;;;5.38;1.17;;;;;;;;;;5004321;28;20183;-66
2022/06/28 10:17:04;;;;;;;4.53;1.00;;;;;;;;;;5006447;28;20298;-66
2022/06/28 10:19:33;;;;;;;4.43;1.23;;;;;;;;;;5007069;28;20241;-65
2022/06/28 10:22:01;;;;;;;3.35;1.33;;;;;;;;;;5007275;28;20273;-68
2022/06/28 10:24:50;;;;;;;1.95;0.88;;;;;;;;;;5006092;28;20531;-66
2022/06/28 10:27:16;;;;;;;1.77;0.90;;;;;;;;;;4998406;28;20191;-68
2022/06/28 10:30:09;;;;;;;6.53;1.27;;;;;;;;;;5006239;28;20503;-67
2022/06/28 10:32:43;;;;;;;4.63;1.10;;;;;;;;;;5007994;28;20482;-66
2022/06/28 10:35:08;;;;;;;4.47;1.50;;;;;;;;;;5040265;28;20182;-65
2022/06/28 10:37:34;;;;;;;4.55;1.42;;;;;;;;;;5001708;28;20195;-68
2022/06/28 10:40:24;;;;;;;1.70;1.15;;;;;;;;;;5007854;28;20242;-66
2022/06/28 10:42:51;;;;;;;5.15;1.20;;;;;;;;;;5003363;28;20545;-65
2022/06/28 10:45:19;;;;;;;3.30;1.23;;;;;;;;;;5003989;28;20264;-68
2022/06/28 10:48:06;;;;;;;2.75;1.23;;;;;;;;;;5000759;28;20718;-64
2022/06/28 10:50:56;;;;;;;3.53;1.10;;;;;;;;;;4988862;28;20192;-64
2022/06/28 10:53:21;;;;;;;2.58;1.10;;;;;;;;;;5001910;28;20657;-65
2022/06/28 10:56:09;;;;;;;2.80;0.90;;;;;;;;;;5004864;28;20183;-64
2022/06/28 10:58:52;;;;;;;3.80;1.17;;;;;;;;;;4998818;28;20362;-64
2022/06/28 11:01:18;;;;;;;4.05;1.20;;;;;;;;;;5006835;28;20185;-65
2022/06/28 11:04:12;;;;;;;3.22;1.52;;;;;;;;;;5006536;28;20662;-65
2022/06/28 11:06:41;;;;;;;2.70;1.15;;;;;;;;;;4992160;28;20187;-64
2022/06/28 11:09:13;;;;;;;3.75;1.20;;;;;;;;;;5004880;28;20170;-64
2022/06/28 11:12:15;;;;;;;5.20;1.17;;;;;;;;;;5012242;28;20186;-65
2022/06/28 11:14:52;;;;;;;5.30;1.02;;;;;;;;;;5011060;28;20178;-67
2022/06/28 11:17:22;;;;;;;5.80;1.10;;;;;;;;;;5012976;28;20182;-65
2022/06/28 11:19:53;;;;;;;3.10;1.00;;;;;;;;;;5013055;28;20282;-66
2022/06/28 11:22:20;;;;;;;3.42;1.40;;;;;;;;;;5009641;28;20443;-67
2022/06/28 11:24:46;;;;;;;5.00;1.27;;;;;;;;;;5007118;28;20194;-66
2022/06/28 11:27:20;;;;;;;3.97;1.10;;;;;;;;;;5000483;28;20187;-69
2022/06/28 11:29:54;;;;;;;1.73;1.20;;;;;;;;;;4999615;28;20233;-65
2022/06/28 11:32:26;;;;;;;3.13;1.30;;;;;;;;;;5009108;28;20202;-64
2022/06/28 11:35:05;;;;;;;3.42;1.33;;;;;;;;;;4999116;28;20187;-70
2022/06/28 11:37:33;;;;;;;5.00;1.50;;;;;;;;;;5007200;28;20190;-65
2022/06/28 11:40:00;;;;;;;3.60;0.85;;;;;;;;;;5007812;28;20586;-65
2022/06/28 11:42:27;;;;;;;2.75;0.80;;;;;;;;;;5006160;28;20526;-68
2022/06/28 11:44:52;;;;;;;3.97;1.30;;;;;;;;;;5008981;28;20182;-68
2022/06/28 11:47:20;;;;;;;2.63;0.93;;;;;;;;;;5008540;28;20179;-64
2022/06/28 11:49:51;;;;;;;5.18;1.45;;;;;;;;;;5010212;28;20206;-63
2022/06/28 11:52:17;;;;;;;5.88;1.30;;;;;;;;;;5007126;28;20189;-65
2022/06/28 11:54:45;;;;;;;6.45;2.22;;;;;;;;;;5004469;28;20194;-64
2022/06/28 11:57:15;;;;;;;3.45;1.27;;;;;;;;;;5004786;28;20282;-65
2022/06/28 12:00:14;;;;;;;5.75;1.55;;;;;;;;;;5004938;28;20207;-64
2022/06/28 12:02:49;;;;;;;2.08;0.90;;;;;;;;;;4965565;28;20217;-64
2022/06/28 12:05:28;;;;;;;6.40;0.90;;;;;;;;;;5002096;28;20182;-66
2022/06/28 12:07:53;;;;;;;4.18;1.15;;;;;;;;;;5007069;28;20187;-67
2022/06/28 12:10:28;;;;;;;2.72;1.02;;;;;;;;;;4999557;28;20241;-67
2022/06/28 12:12:54;;;;;;;3.22;1.30;;;;;;;;;;5004177;28;20197;-64
2022/06/28 12:15:30;;;;;;;7.35;1.30;;;;;;;;;;5009199;28;20186;-66
2022/06/28 12:18:00;;;;;;;8.60;1.15;;;;;;;;;;4999953;28;20294;-65
2022/06/28 12:20:26;;;;;;;3.63;1.20;;;;;;;;;;5017450;28;20198;-67
2022/06/28 12:22:57;;;;;;;3.05;1.20;;;;;;;;;;5006721;28;20236;-65
2022/06/28 12:25:22;;;;;;;4.55;1.30;;;;;;;;;;4996777;28;20187;-64
2022/06/28 12:27:48;;;;;;;3.55;0.88;;;;;;;;;;5004309;28;20237;-67
2022/06/28 12:30:13;;;;;;;3.90;1.20;;;;;;;;;;5007360;28;20530;-65
2022/06/28 12:32:40;;;;;;;3.00;1.20;;;;;;;;;;5003791;28;20932;-64
2022/06/28 12:35:07;;;;;;;6.15;1.35;;;;;;;;;;5006816;28;20184;-65
2022/06/28 12:37:34;;;;;;;4.10;1.15;;;;;;;;;;5003479;28;20273;-65
2022/06/28 12:40:01;;;;;;;1.80;1.00;;;;;;;;;;5009637;28;20199;-66
2022/06/28 12:42:27;;;;;;;4.00;1.00;;;;;;;;;;5002624;28;20663;-66
2022/06/28 12:45:02;;;;;;;2.85;1.10;;;;;;;;;;4995329;28;20600;-65
2022/06/28 12:47:29;;;;;;;2.67;0.93;;;;;;;;;;5002515;28;20582;-66
2022/06/28 12:49:56;;;;;;;4.00;1.15;;;;;;;;;;5006843;28;20183;-64
2022/06/28 12:52:21;;;;;;;3.40;1.27;;;;;;;;;;5004497;28;20193;-64
2022/06/28 12:54:47;;;;;;;3.60;1.10;;;;;;;;;;5004409;28;20182;-66
2022/06/28 12:57:12;;;;;;;2.78;0.90;;;;;;;;;;5005730;28;20178;-65
2022/06/28 12:59:37;;;;;;;3.58;0.90;;;;;;;;;;5006377;28;20234;-67
2022/06/28 13:02:03;;;;;;;4.68;0.93;;;;;;;;;;5006885;28;20195;-66
2022/06/28 13:04:28;;;;;;;4.63;1.10;;;;;;;;;;5004730;28;20219;-66
2022/06/28 13:06:54;;;;;;;3.50;1.10;;;;;;;;;;5006934;28;20191;-66
2022/06/28 13:09:19;;;;;;;3.50;1.17;;;;;;;;;;5003263;28;20214;-67
2022/06/28 13:11:45;;;;;;;3.42;1.10;;;;;;;;;;5005273;28;20332;-65
2022/06/28 13:14:10;;;;;;;3.92;1.20;;;;;;;;;;5006043;28;20550;-65
2022/06/28 13:16:35;;;;;;;3.92;1.10;;;;;;;;;;5006534;28;20190;-67
2022/06/28 13:19:01;;;;;;;3.05;1.02;;;;;;;;;;5006630;28;20245;-66
2022/06/28 13:21:27;;;;;;;2.97;1.25;;;;;;;;;;5036174;28;20194;-66
2022/06/28 13:23:52;;;;;;;5.70;1.23;;;;;;;;;;5006548;28;20183;-67
2022/06/28 13:26:18;;;;;;;3.30;1.20;;;;;;;;;;5003255;28;21018;-65
2022/06/28 13:28:43;;;;;;;3.88;1.08;;;;;;;;;;5002995;28;20593;-66
2022/06/28 13:31:09;;;;;;;4.78;1.10;;;;;;;;;;5007417;28;20226;-64
2022/06/28 13:33:35;;;;;;;2.65;0.80;;;;;;;;;;5033150;28;20579;-66
2022/06/28 13:36:00;;;;;;;4.30;0.93;;;;;;;;;;5007676;28;20194;-65
2022/06/28 13:38:26;;;;;;;2.17;1.08;;;;;;;;;;5006353;28;20619;-65
2022/06/28 13:40:52;;;;;;;2.42;0.90;;;;;;;;;;5002367;28;20218;-65
2022/06/28 13:43:33;;;;;;;2.63;1.02;;;;;;;;;;5004786;28;20554;-66
2022/06/28 13:46:02;;;;;;;2.13;0.77;;;;;;;;;;5007929;28;20190;-68
2022/06/28 13:48:28;;;;;;;3.80;1.17;;;;;;;;;;5007760;28;20341;-64
2022/06/28 13:50:53;;;;;;;2.17;0.88;;;;;;;;;;5002049;28;20704;-65
2022/06/28 13:53:19;;;;;;;4.40;0.82;;;;;;;;;;5000088;28;20232;-64
2022/06/28 13:55:46;;;;;;;5.95;0.93;;;;;;;;;;5003926;28;20225;-64
2022/06/28 13:58:13;;;;;;;2.92;0.90;;;;;;;;;;5002234;28;20183;-66
2022/06/28 14:00:40;;;;;;;1.83;0.85;;;;;;;;;;5003087;28;20198;-66
2022/06/28 14:03:06;;;;;;;2.03;0.80;;;;;;;;;;5000792;28;20695;-66
2022/06/28 14:05:31;;;;;;;4.25;1.10;;;;;;;;;;4999995;28;20266;-65
2022/06/28 14:07:57;;;;;;;6.22;0.90;;;;;;;;;;5034637;28;20656;-64
2022/06/28 14:10:22;;;;;;;2.53;0.70;;;;;;;;;;5006678;28;20674;-64
2022/06/28 14:12:47;;;;;;;2.50;1.02;;;;;;;;;;5003992;28;20693;-65
2022/06/28 14:15:13;;;;;;;3.72;0.93;;;;;;;;;;5001336;28;20183;-65
2022/06/28 14:17:38;;;;;;;3.08;0.88;;;;;;;;;;5001604;28;20451;-65
2022/06/28 14:20:04;;;;;;;4.63;1.13;;;;;;;;;;5001900;28;20223;-65
2022/06/28 14:22:29;;;;;;;4.82;0.93;;;;;;;;;;4996313;28;20226;-65
2022/06/28 14:24:55;;;;;;;2.92;0.90;;;;;;;;;;5003928;28;20272;-67
2022/06/28 14:27:20;;;;;;;2.90;1.08;;;;;;;;;;5004895;28;20206;-66
2022/06/28 14:29:46;;;;;;;3.60;0.90;;;;;;;;;;5003139;28;20227;-66
2022/06/28 14:32:12;;;;;;;2.83;0.77;;;;;;;;;;5004843;28;20210;-66
2022/06/28 14:34:38;;;;;;;1.45;0.70;;;;;;;;;;5001170;28;20208;-65
2022/06/28 14:37:04;;;;;;;2.58;0.82;;;;;;;;;;5002547;28;20183;-65
2022/06/28 14:39:29;;;;;;;2.42;0.90;;;;;;;;;;4998544;28;20206;-65
2022/06/28 14:41:55;;;;;;;5.05;0.90;;;;;;;;;;4996634;28;20190;-64